HAL weather

Hospital Ángeles de Xalapa Heliport
Xalapa, Veracruz, Mexico

Public forecast

Using degrees Celsius for public forecast. Weather courtesy of forecast.io.

Closest aviation weather report (METAR) to Hospital Ángeles de Xalapa Heliport

Closest report is General Heriberto Jara International Airport, 45.2 nm (83.7 km) ESE. Retrieved 2020/04/08 21:51 UTC (34 minutes ago):

MMVR 082151Z 09009KT 6SM OVC250 31/24 A2980 RMK 8/007 HZY

Closest aviation forecast (TAF) to Hospital Ángeles de Xalapa Heliport

Closest forecast is General Heriberto Jara International Airport, 45.2 nm (83.7 km) ESE. Retrieved 2020/04/08 18:47 UTC (4 hours ago):

TAF MMVR 081640Z 0818/0918 06010KT 5SM HZ SCT015 SCT230 TX34/0821Z TN25/0912Z BECMG 0901/0902 00000KT FM091000 00000KT 3SM BR OVC010 FM091500 00000KT 4SM HZ SCT015